Time;durP1;ratioP1;P1;durP2;ratioP2;P2;SDS_P1;SDS_P2;PMS_P1;PMS_P2;Temp;Humidity;BMP_temperature;BMP_pressure;BME280_temperature;BME280_humidity;BME280_pressure;Samples;Min_cycle;Max_cycle;Signal;HPM_P1;HPM_P2
2023/01/26 00:02:03;;;;;;;116.28;32.22;;;0.00;99.90;;;;;;5029944;28;20032;-64
2023/01/26 00:04:29;;;;;;;112.30;32.53;;;0.00;99.90;;;;;;5030934;28;20709;-64
2023/01/26 00:06:54;;;;;;;101.50;30.27;;;0.00;99.90;;;;;;5014704;28;20037;-64
2023/01/26 00:09:20;;;;;;;112.75;29.98;;;-0.20;99.90;;;;;;5046287;28;20094;-62
2023/01/26 00:11:46;;;;;;;125.55;32.33;;;0.00;99.90;;;;;;5031134;28;20044;-63
2023/01/26 00:14:11;;;;;;;111.25;29.98;;;-0.10;99.90;;;;;;5045890;28;20106;-64
2023/01/26 00:16:38;;;;;;;100.53;29.42;;;0.10;99.90;;;;;;5048076;28;20532;-62
2023/01/26 00:19:03;;;;;;;105.53;29.77;;;0.00;99.90;;;;;;5047902;28;20544;-65
2023/01/26 00:21:29;;;;;;;110.63;31.05;;;0.10;99.90;;;;;;5047640;28;20094;-63
2023/01/26 00:23:56;;;;;;;100.00;28.88;;;0.00;99.90;;;;;;5048316;28;20538;-63
2023/01/26 00:26:24;;;;;;;96.95;29.27;;;0.10;99.90;;;;;;5046064;28;20186;-62
2023/01/26 00:28:50;;;;;;;122.97;32.45;;;0.00;99.90;;;;;;5045193;28;20043;-62
2023/01/26 00:31:19;;;;;;;114.13;29.83;;;0.10;99.90;;;;;;5047939;28;20098;-63
2023/01/26 00:33:45;;;;;;;91.70;28.27;;;-0.10;99.90;;;;;;5048039;28;20833;-65
2023/01/26 00:36:11;;;;;;;101.55;28.15;;;0.00;99.90;;;;;;5048868;28;20579;-64
2023/01/26 00:38:38;;;;;;;99.72;28.67;;;0.10;99.90;;;;;;5050780;28;20109;-63
2023/01/26 00:41:04;;;;;;;95.55;24.58;;;0.10;99.90;;;;;;5049747;28;20333;-63
2023/01/26 00:43:30;;;;;;;113.47;28.80;;;0.00;99.90;;;;;;5050787;28;20075;-63
2023/01/26 00:45:56;;;;;;;102.32;27.52;;;-0.10;99.90;;;;;;5050113;28;20195;-63
2023/01/26 00:48:21;;;;;;;91.60;25.73;;;-0.10;99.90;;;;;;5032599;28;20387;-63
2023/01/26 00:50:50;;;;;;;71.82;21.77;;;0.00;99.90;;;;;;5049437;28;20036;-64
2023/01/26 00:53:16;;;;;;;103.20;28.13;;;0.10;99.90;;;;;;5049310;28;20052;-64
2023/01/26 00:55:42;;;;;;;105.38;27.88;;;-0.10;99.90;;;;;;5051220;28;20040;-63
2023/01/26 00:58:08;;;;;;;99.00;27.25;;;-0.10;99.90;;;;;;5051203;28;20045;-63
2023/01/26 01:00:36;;;;;;;103.68;27.67;;;0.00;99.90;;;;;;5033239;28;20033;-63
2023/01/26 01:03:01;;;;;;;94.10;26.17;;;0.20;99.90;;;;;;5054462;28;20057;-63
2023/01/26 01:05:29;;;;;;;93.82;26.75;;;0.00;99.90;;;;;;5053207;28;20253;-63
2023/01/26 01:07:56;;;;;;;94.88;25.42;;;0.20;99.90;;;;;;5071615;28;20096;-63
2023/01/26 01:10:22;;;;;;;102.57;27.30;;;0.10;99.90;;;;;;5070963;28;20267;-65
2023/01/26 01:12:48;;;;;;;99.30;26.63;;;0.20;99.90;;;;;;5051536;28;20129;-63
2023/01/26 01:15:13;;;;;;;101.18;27.52;;;-0.10;99.90;;;;;;5070689;28;20200;-63
2023/01/26 01:17:39;;;;;;;92.55;26.23;;;0.00;99.90;;;;;;5070986;28;20028;-63
2023/01/26 01:20:07;;;;;;;96.18;25.98;;;0.10;99.90;;;;;;5069463;28;20040;-64
2023/01/26 01:22:33;;;;;;;95.13;26.73;;;0.00;99.90;;;;;;5071507;28;20608;-63
2023/01/26 01:24:59;;;;;;;86.75;24.98;;;0.00;99.90;;;;;;5053304;28;20105;-63
2023/01/26 01:27:25;;;;;;;84.75;24.52;;;-0.10;99.90;;;;;;5052195;28;20474;-63
2023/01/26 01:29:51;;;;;;;73.43;22.58;;;0.10;99.90;;;;;;5070664;28;20062;-64
2023/01/26 01:32:17;;;;;;;86.45;23.70;;;0.00;99.90;;;;;;5070638;28;20074;-63
2023/01/26 01:34:46;;;;;;;95.70;26.25;;;0.00;99.90;;;;;;5069686;28;20071;-64
2023/01/26 01:37:11;;;;;;;82.95;24.52;;;0.00;99.90;;;;;;5070340;28;20047;-63
2023/01/26 01:39:37;;;;;;;82.30;24.00;;;-0.10;99.90;;;;;;5052479;28;20037;-63
2023/01/26 01:42:03;;;;;;;86.18;25.05;;;-0.10;99.90;;;;;;5071249;28;20094;-64
2023/01/26 01:44:29;;;;;;;84.93;25.33;;;0.00;99.90;;;;;;5020595;28;20113;-64
2023/01/26 01:46:54;;;;;;;96.38;25.25;;;-0.10;99.90;;;;;;5051841;28;20036;-63
2023/01/26 01:49:26;;;;;;;82.60;24.30;;;0.20;99.90;;;;;;5070276;28;20406;-65
2023/01/26 01:52:00;;;;;;;86.07;24.08;;;0.20;99.90;;;;;;5071423;28;20101;-64
2023/01/26 01:54:40;;;;;;;84.32;24.30;;;0.10;99.90;;;;;;5070334;28;20040;-64
2023/01/26 01:57:14;;;;;;;82.55;24.67;;;0.00;99.90;;;;;;5069921;28;20086;-64
2023/01/26 01:59:44;;;;;;;83.18;24.40;;;0.10;99.90;;;;;;5068196;28;20036;-63
2023/01/26 02:02:10;;;;;;;95.47;25.73;;;0.20;99.90;;;;;;5051344;28;20139;-64
2023/01/26 02:04:37;;;;;;;96.30;25.13;;;0.00;99.90;;;;;;5051767;28;20101;-64
2023/01/26 02:07:03;;;;;;;79.25;24.27;;;0.20;99.90;;;;;;5033512;28;20192;-63
2023/01/26 02:12:22;;;;;;;98.38;25.38;;;0.20;99.90;;;;;;5069669;28;20779;-64
2023/01/26 02:14:50;;;;;;;96.50;28.15;;;0.20;99.90;;;;;;5070425;28;20453;-63
2023/01/26 02:17:16;;;;;;;93.53;27.58;;;0.30;99.90;;;;;;5033718;28;20054;-64
2023/01/26 02:20:04;;;;;;;91.85;26.55;;;0.20;99.90;;;;;;5069674;28;20040;-64
2023/01/26 02:22:55;;;;;;;98.15;27.38;;;0.30;99.90;;;;;;5050615;28;20696;-63
2023/01/26 02:25:29;;;;;;;101.80;27.98;;;0.00;99.90;;;;;;5068625;28;20043;-63
2023/01/26 02:27:55;;;;;;;102.93;27.20;;;0.20;99.90;;;;;;5069069;28;20040;-63
2023/01/26 02:30:22;;;;;;;110.35;29.30;;;0.20;99.90;;;;;;5052520;28;20089;-63
2023/01/26 02:32:47;;;;;;;100.10;26.98;;;0.30;99.90;;;;;;5048139;28;20050;-63
2023/01/26 02:35:13;;;;;;;104.88;28.58;;;0.20;99.90;;;;;;5070430;28;20793;-63
2023/01/26 02:37:39;;;;;;;104.53;29.55;;;0.20;99.90;;;;;;5050830;28;20446;-63
2023/01/26 02:40:30;;;;;;;101.82;28.48;;;0.00;99.90;;;;;;5051264;28;20035;-64
2023/01/26 02:42:56;;;;;;;105.95;28.92;;;0.30;99.90;;;;;;5050912;28;20052;-63
2023/01/26 02:45:25;;;;;;;111.60;28.65;;;0.30;99.90;;;;;;5069260;28;20044;-64
2023/01/26 02:47:50;;;;;;;114.95;30.42;;;0.30;99.90;;;;;;5033033;28;20031;-63
2023/01/26 02:50:16;;;;;;;112.57;29.17;;;0.30;99.90;;;;;;5032863;28;20067;-63
2023/01/26 02:52:42;;;;;;;107.15;29.70;;;0.10;99.90;;;;;;5033821;28;20086;-64
2023/01/26 02:55:27;;;;;;;103.00;28.65;;;0.10;99.90;;;;;;5049890;28;20059;-63
2023/01/26 02:57:56;;;;;;;124.45;30.13;;;0.20;99.90;;;;;;5049196;28;20044;-64
2023/01/26 03:00:27;;;;;;;107.25;28.95;;;0.20;99.90;;;;;;5067092;28;20039;-64
2023/01/26 03:02:56;;;;;;;103.55;28.38;;;0.10;99.90;;;;;;5032797;28;20294;-64
2023/01/26 03:05:22;;;;;;;113.53;31.08;;;0.40;99.90;;;;;;5048812;28;20380;-63
2023/01/26 03:07:47;;;;;;;104.88;29.67;;;0.40;99.90;;;;;;5032930;28;20245;-63
2023/01/26 03:10:15;;;;;;;110.35;29.35;;;0.40;99.90;;;;;;5068331;28;20240;-64
2023/01/26 03:12:41;;;;;;;129.55;31.08;;;0.20;99.90;;;;;;5048948;28;20516;-63
2023/01/26 03:29:01;;;;;;;97.65;24.38;;;0.60;99.90;;;;;;5052015;28;20040;-63
2023/01/26 03:31:26;;;;;;;109.53;28.50;;;0.50;99.90;;;;;;5049215;28;20122;-64
2023/01/26 03:33:52;;;;;;;119.88;29.02;;;0.40;99.90;;;;;;5048185;28;20044;-64
2023/01/26 03:36:18;;;;;;;124.07;30.27;;;0.60;99.90;;;;;;5065845;28;20568;-64
2023/01/26 03:38:43;;;;;;;111.70;29.42;;;0.30;99.90;;;;;;5048777;28;20320;-64
2023/01/26 03:57:35;;;;;;;108.70;29.45;;;0.70;99.90;;;;;;5046909;28;20043;-63
2023/01/26 04:00:00;;;;;;;132.30;30.52;;;0.80;99.90;;;;;;5030556;28;20071;-64
2023/01/26 04:10:44;;;;;;;132.35;29.85;;;0.70;99.90;;;;;;5065426;28;20044;-64
2023/01/26 04:21:28;;;;;;;119.45;28.83;;;0.90;99.90;;;;;;5047993;28;20048;-64
2023/01/26 04:23:56;;;;;;;135.38;28.63;;;0.90;99.90;;;;;;5018221;28;20337;-64
2023/01/26 04:26:33;;;;;;;120.40;29.33;;;0.50;99.90;;;;;;5065240;28;20116;-64
2023/01/26 04:29:01;;;;;;;103.97;28.08;;;0.90;99.90;;;;;;5048453;28;20512;-64
2023/01/26 04:31:27;;;;;;;121.53;28.52;;;1.00;99.90;;;;;;5066219;28;20119;-64
2023/01/26 04:33:52;;;;;;;134.43;29.00;;;0.50;99.90;;;;;;5048353;28;20062;-64
2023/01/26 04:36:18;;;;;;;121.72;28.45;;;0.60;99.90;;;;;;5049722;28;20040;-62
2023/01/26 04:38:44;;;;;;;111.93;29.17;;;0.50;99.90;;;;;;5066759;28;20044;-64
2023/01/26 04:41:09;;;;;;;128.60;29.48;;;0.60;99.90;;;;;;5065118;28;20339;-64
2023/01/26 04:43:35;;;;;;;120.88;29.35;;;0.60;99.90;;;;;;5066361;28;20048;-65
2023/01/26 04:46:03;;;;;;;124.28;28.77;;;0.60;99.90;;;;;;5048182;28;20044;-63
2023/01/26 04:48:30;;;;;;;115.20;28.30;;;1.00;99.90;;;;;;5048584;28;20048;-63
2023/01/26 04:50:57;;;;;;;109.72;27.17;;;1.10;99.90;;;;;;5048635;28;20464;-63
2023/01/26 04:53:23;;;;;;;110.30;28.75;;;1.00;99.90;;;;;;5047284;28;20044;-62
2023/01/26 04:55:48;;;;;;;130.93;31.33;;;0.70;99.90;;;;;;5047871;28;20262;-63
2023/01/26 04:58:14;;;;;;;118.45;29.95;;;1.10;99.90;;;;;;5014472;28;20501;-64
2023/01/26 05:00:40;;;;;;;134.82;30.67;;;0.60;99.90;;;;;;5031435;28;20477;-64
2023/01/26 05:03:05;;;;;;;129.68;30.65;;;0.60;99.90;;;;;;5013652;28;20053;-64
2023/01/26 05:05:38;;;;;;;141.88;32.10;;;1.10;99.90;;;;;;5064997;28;20051;-63
2023/01/26 05:08:05;;;;;;;131.80;31.80;;;0.70;99.90;;;;;;5065872;28;20068;-63
2023/01/26 05:10:31;;;;;;;151.25;31.63;;;0.90;99.90;;;;;;5030590;28;20048;-63
2023/01/26 05:12:57;;;;;;;157.90;33.28;;;0.70;99.90;;;;;;5032475;28;20549;-64
2023/01/26 05:15:23;;;;;;;133.73;30.90;;;1.20;99.90;;;;;;5047062;28;20040;-65
2023/01/26 05:17:48;;;;;;;134.85;32.22;;;0.90;99.90;;;;;;5049603;28;20036;-61
2023/01/26 05:20:14;;;;;;;133.27;32.40;;;1.10;99.90;;;;;;5066637;28;20351;-62
2023/01/26 05:22:40;;;;;;;127.93;31.88;;;1.30;99.90;;;;;;5067774;28;20503;-62
2023/01/26 05:25:06;;;;;;;137.00;33.10;;;1.30;99.90;;;;;;5035610;28;20135;-62
2023/01/26 05:27:32;;;;;;;136.00;33.38;;;1.30;99.90;;;;;;5053180;28;20132;-63
2023/01/26 05:29:59;;;;;;;144.25;33.65;;;1.30;99.90;;;;;;5070611;28;20546;-63
2023/01/26 05:32:29;;;;;;;150.23;34.00;;;1.10;99.90;;;;;;5071564;28;20036;-64
2023/01/26 05:34:55;;;;;;;149.73;33.67;;;1.30;99.90;;;;;;5069764;28;20110;-63
2023/01/26 05:37:24;;;;;;;142.27;33.15;;;0.90;99.90;;;;;;5052778;28;20135;-63
2023/01/26 05:39:49;;;;;;;139.15;33.38;;;0.90;99.90;;;;;;5052144;28;20532;-64
2023/01/26 05:42:15;;;;;;;134.13;33.28;;;0.90;99.90;;;;;;5051031;28;21271;-64
2023/01/26 05:44:41;;;;;;;140.25;33.28;;;1.30;99.90;;;;;;5069180;28;20032;-62
2023/01/26 05:47:07;;;;;;;129.10;32.33;;;1.40;99.90;;;;;;5035777;28;20135;-64
2023/01/26 05:49:32;;;;;;;124.68;31.15;;;1.50;99.90;;;;;;5068880;28;20486;-63
2023/01/26 05:51:58;;;;;;;138.98;34.75;;;1.30;99.90;;;;;;5051354;28;20572;-62
2023/01/26 05:54:24;;;;;;;126.63;31.77;;;1.30;99.90;;;;;;5052035;28;20485;-63
2023/01/26 05:56:52;;;;;;;128.15;30.95;;;1.30;99.90;;;;;;5070571;28;20067;-63
2023/01/26 05:59:18;;;;;;;121.03;30.00;;;1.60;99.90;;;;;;5049853;28;20095;-64
2023/01/26 06:01:43;;;;;;;108.25;25.95;;;1.80;99.90;;;;;;5052017;28;20119;-63
2023/01/26 06:04:09;;;;;;;118.22;29.23;;;1.90;99.90;;;;;;5068403;28;20059;-63
2023/01/26 06:06:35;;;;;;;117.70;26.83;;;2.20;99.90;;;;;;5000355;28;20066;-63
2023/01/26 06:09:01;;;;;;;99.75;22.40;;;1.80;99.90;;;;;;5068433;28;20155;-64
2023/01/26 06:11:26;;;;;;;99.20;20.65;;;2.10;99.90;;;;;;5035153;28;20328;-63
2023/01/26 06:13:52;;;;;;;84.13;18.10;;;2.50;99.90;;;;;;5051566;28;20055;-63
2023/01/26 06:16:18;;;;;;;86.63;17.02;;;2.40;99.90;;;;;;5051210;28;20044;-63
2023/01/26 06:18:47;;;;;;;89.90;16.27;;;2.70;99.90;;;;;;5069763;28;20040;-65
2023/01/26 06:21:13;;;;;;;77.38;8.10;;;2.80;99.90;;;;;;5034926;28;20503;-63
2023/01/26 06:23:38;;;;;;;58.83;6.07;;;2.90;99.90;;;;;;5067843;28;20468;-62
2023/01/26 06:26:05;;;;;;;57.63;5.25;;;3.10;99.90;;;;;;5051462;28;20365;-63
2023/01/26 06:28:31;;;;;;;58.05;5.45;;;3.40;99.90;;;;;;5050131;28;20083;-63
2023/01/26 06:31:03;;;;;;;72.65;6.72;;;3.50;99.90;;;;;;5034763;28;20139;-62
2023/01/26 06:33:31;;;;;;;54.13;5.25;;;3.70;99.90;;;;;;5052182;28;20503;-63
2023/01/26 06:36:05;;;;;;;69.07;5.50;;;4.10;99.90;;;;;;5066504;28;20101;-65
2023/01/26 06:38:31;;;;;;;58.72;4.70;;;4.10;99.90;;;;;;5066899;28;20055;-63
2023/01/26 06:41:03;;;;;;;72.85;5.93;;;3.90;99.90;;;;;;5043099;28;20045;-65
2023/01/26 06:43:29;;;;;;;83.05;5.85;;;3.80;99.90;;;;;;5059789;28;20033;-65
2023/01/26 06:45:59;;;;;;;56.53;5.05;;;3.80;99.90;;;;;;5058841;28;20245;-64
2023/01/26 06:48:27;;;;;;;66.18;6.07;;;4.20;99.90;;;;;;5059269;28;20045;-65
2023/01/26 06:50:57;;;;;;;73.72;5.90;;;3.80;99.90;;;;;;5023049;28;20040;-65
2023/01/26 06:53:32;;;;;;;65.38;6.00;;;4.30;99.90;;;;;;5023705;28;20133;-65
2023/01/26 06:55:58;;;;;;;67.22;6.32;;;4.30;99.90;;;;;;5040654;28;20278;-65
2023/01/26 06:58:24;;;;;;;78.18;6.68;;;3.80;99.90;;;;;;5039601;28;20131;-65
2023/01/26 07:00:53;;;;;;;77.10;5.95;;;3.90;99.90;;;;;;5059093;28;20062;-63
2023/01/26 07:03:19;;;;;;;62.75;5.47;;;4.30;99.90;;;;;;5059005;28;20143;-63
2023/01/26 07:05:45;;;;;;;67.97;5.45;;;3.90;99.90;;;;;;5041552;28;20123;-64
2023/01/26 07:08:10;;;;;;;79.57;6.05;;;4.30;99.90;;;;;;5041359;28;20078;-62
2023/01/26 07:10:37;;;;;;;59.53;5.20;;;4.00;99.90;;;;;;5025374;28;20093;-63
2023/01/26 07:13:04;;;;;;;76.75;6.05;;;4.00;99.90;;;;;;5059949;28;20517;-63
2023/01/26 07:15:29;;;;;;;66.97;5.85;;;3.60;99.90;;;;;;5060214;28;20033;-63
2023/01/26 07:17:59;;;;;;;68.32;5.63;;;3.70;99.90;;;;;;5039953;28;20039;-62
2023/01/26 07:20:25;;;;;;;53.65;4.82;;;3.50;99.90;;;;;;5042547;28;20044;-63
2023/01/26 07:22:51;;;;;;;78.95;5.10;;;3.40;99.90;;;;;;5025579;28;20390;-63
2023/01/26 07:25:18;;;;;;;67.07;5.78;;;3.50;99.90;;;;;;5060337;28;20091;-62
2023/01/26 07:27:43;;;;;;;62.75;5.25;;;3.80;99.90;;;;;;5059915;28;20040;-63
2023/01/26 07:30:13;;;;;;;65.53;5.95;;;3.40;99.90;;;;;;5058141;28;20568;-62
2023/01/26 07:32:39;;;;;;;62.13;5.50;;;3.80;99.90;;;;;;5056150;28;20041;-64
2023/01/26 07:35:05;;;;;;;64.15;5.53;;;3.20;99.90;;;;;;5050023;28;20051;-63
2023/01/26 07:37:31;;;;;;;65.10;5.93;;;3.10;99.90;;;;;;5040972;28;20048;-63
2023/01/26 07:39:57;;;;;;;65.35;6.32;;;3.70;99.90;;;;;;5057664;28;20086;-63
2023/01/26 07:42:22;;;;;;;63.83;5.07;;;3.10;99.90;;;;;;5040680;28;20131;-62
2023/01/26 07:44:48;;;;;;;60.80;5.07;;;3.40;99.90;;;;;;5057830;28;20036;-62
2023/01/26 07:47:14;;;;;;;61.35;4.88;;;3.10;99.90;;;;;;5041629;28;20041;-62
2023/01/26 07:49:40;;;;;;;61.60;5.45;;;3.30;99.90;;;;;;5041559;28;20381;-63
2023/01/26 07:52:07;;;;;;;57.15;5.30;;;3.60;99.90;;;;;;5041059;28;20044;-63
2023/01/26 07:54:33;;;;;;;67.43;4.95;;;3.30;99.90;;;;;;5024605;28;20495;-64
2023/01/26 07:56:59;;;;;;;71.68;5.07;;;3.00;99.90;;;;;;5041146;28;20043;-62
2023/01/26 07:59:25;;;;;;;72.72;5.10;;;3.60;99.90;;;;;;5041021;28;20040;-62
2023/01/26 08:01:51;;;;;;;75.35;5.72;;;3.50;99.90;;;;;;5041827;28;20063;-63
2023/01/26 08:04:17;;;;;;;63.53;5.53;;;3.20;99.90;;;;;;5058300;28;20144;-63
2023/01/26 08:06:44;;;;;;;71.13;5.57;;;3.30;99.90;;;;;;5039431;28;20129;-63
2023/01/26 08:09:10;;;;;;;65.15;5.88;;;3.60;99.90;;;;;;5057271;28;20076;-63
2023/01/26 08:11:38;;;;;;;60.30;4.60;;;3.10;99.90;;;;;;5058246;28;20123;-62
2023/01/26 08:14:04;;;;;;;70.32;5.30;;;3.30;99.90;;;;;;5037563;28;20132;-63
2023/01/26 08:16:30;;;;;;;68.43;5.15;;;3.10;99.90;;;;;;5023607;28;20178;-62
2023/01/26 08:18:55;;;;;;;63.08;4.65;;;3.10;99.90;;;;;;5039536;28;20051;-62
2023/01/26 08:21:21;;;;;;;64.82;4.80;;;3.50;99.90;;;;;;5069664;28;20055;-63
2023/01/26 08:23:51;;;;;;;59.90;5.38;;;3.50;99.90;;;;;;5050231;28;20052;-62
2023/01/26 08:26:18;;;;;;;59.00;5.55;;;3.50;99.90;;;;;;5049676;28;20036;-64
2023/01/26 08:28:44;;;;;;;69.57;4.93;;;3.40;99.90;;;;;;5066821;28;20371;-64
2023/01/26 08:31:19;;;;;;;69.65;4.93;;;2.90;99.90;;;;;;5048472;28;20506;-64
2023/01/26 08:33:49;;;;;;;73.55;5.53;;;3.40;99.90;;;;;;5065131;28;20071;-63
2023/01/26 08:36:16;;;;;;;58.53;5.95;;;3.30;99.90;;;;;;5070003;28;20044;-65
2023/01/26 08:38:42;;;;;;;56.92;4.13;;;3.20;99.90;;;;;;5067646;28;20067;-64
2023/01/26 08:41:09;;;;;;;66.03;5.72;;;3.40;99.90;;;;;;5051046;28;20480;-65
2023/01/26 08:43:34;;;;;;;57.70;4.00;;;3.20;99.90;;;;;;5052545;28;20073;-64
2023/01/26 08:46:01;;;;;;;47.83;4.68;;;3.60;99.90;;;;;;5065267;28;20032;-65
2023/01/26 08:48:28;;;;;;;59.60;4.80;;;3.40;99.90;;;;;;5049112;28;20169;-64
2023/01/26 08:50:55;;;;;;;67.82;5.38;;;3.60;99.90;;;;;;5018532;28;20042;-64
2023/01/26 08:53:21;;;;;;;48.42;4.47;;;3.90;99.90;;;;;;5050359;28;20098;-65
2023/01/26 08:55:47;;;;;;;58.33;5.70;;;3.80;99.90;;;;;;5066851;28;20094;-64
2023/01/26 08:58:13;;;;;;;58.30;4.60;;;4.10;99.90;;;;;;5072427;28;20493;-64
2023/01/26 09:00:38;;;;;;;56.60;5.10;;;4.20;99.90;;;;;;5070889;28;20604;-64
2023/01/26 09:03:05;;;;;;;51.00;5.30;;;4.20;99.90;;;;;;5053302;28;21066;-64
2023/01/26 09:05:33;;;;;;;60.25;4.50;;;3.60;99.90;;;;;;5070979;28;20075;-64
2023/01/26 09:07:58;;;;;;;55.53;4.10;;;3.70;99.90;;;;;;5057199;28;20083;-64
2023/01/26 09:10:24;;;;;;;52.63;4.53;;;4.30;99.90;;;;;;5075065;28;20321;-64
2023/01/26 09:12:50;;;;;;;55.63;5.13;;;3.90;99.90;;;;;;5042126;28;20062;-63
2023/01/26 09:15:16;;;;;;;51.85;3.92;;;4.40;99.90;;;;;;5055354;28;20404;-63
2023/01/26 09:17:42;;;;;;;49.00;4.05;;;4.40;99.90;;;;;;5056068;28;20044;-64
2023/01/26 09:20:11;;;;;;;47.65;4.38;;;4.50;99.90;;;;;;5074194;28;20123;-63
2023/01/26 09:22:37;;;;;;;59.25;5.15;;;4.10;99.90;;;;;;5076209;28;20043;-63
2023/01/26 09:25:03;;;;;;;43.55;4.10;;;4.40;99.90;;;;;;5070907;28;20040;-63
2023/01/26 09:27:29;;;;;;;48.47;4.32;;;4.40;99.90;;;;;;5056556;28;20093;-64
2023/01/26 09:29:54;;;;;;;51.20;5.13;;;4.60;99.90;;;;;;5022730;28;20036;-62
2023/01/26 09:32:21;;;;;;;41.92;4.63;;;4.70;99.90;;;;;;5036100;28;20126;-64
2023/01/26 09:34:47;;;;;;;47.17;4.45;;;4.80;99.90;;;;;;5050346;28;20044;-64
2023/01/26 09:37:13;;;;;;;48.75;4.05;;;4.80;99.90;;;;;;5067827;28;20186;-64
2023/01/26 09:39:39;;;;;;;42.42;4.05;;;5.20;99.90;;;;;;5036006;28;20521;-64
2023/01/26 09:42:20;;;;;;;35.65;3.63;;;5.00;99.90;;;;;;5070139;28;20128;-65
2023/01/26 09:45:07;;;;;;;37.25;3.13;;;5.50;99.90;;;;;;5035550;28;20110;-65
2023/01/26 09:47:52;;;;;;;45.63;3.85;;;5.30;99.90;;;;;;5069577;28;20078;-64
2023/01/26 09:50:23;;;;;;;45.55;3.85;;;5.40;99.90;;;;;;5068842;28;20131;-63
2023/01/26 09:53:02;;;;;;;40.38;3.70;;;5.60;99.90;;;;;;5070801;28;20133;-62
2023/01/26 09:55:30;;;;;;;34.45;3.42;;;5.60;99.90;;;;;;5051991;28;20076;-62
2023/01/26 09:58:11;;;;;;;37.25;3.53;;;5.40;99.90;;;;;;5070704;28;20063;-62
2023/01/26 10:00:46;;;;;;;39.00;3.67;;;5.80;99.90;;;;;;5058316;28;20117;-65
2023/01/26 10:03:30;;;;;;;29.85;2.78;;;5.80;99.90;;;;;;5044782;28;20529;-65
2023/01/26 10:06:02;;;;;;;36.47;3.55;;;5.80;99.90;;;;;;5021714;28;20094;-64
2023/01/26 10:08:28;;;;;;;33.55;3.00;;;5.70;99.90;;;;;;5046121;28;20498;-65
2023/01/26 10:11:12;;;;;;;30.25;3.15;;;5.80;99.90;;;;;;5047344;28;20274;-63
2023/01/26 10:13:39;;;;;;;33.60;3.30;;;6.00;99.90;;;;;;5046659;28;20046;-64
2023/01/26 10:16:11;;;;;;;31.75;3.03;;;6.50;99.90;;;;;;5023822;28;20255;-63
2023/01/26 10:18:54;;;;;;;26.90;3.22;;;7.10;99.90;;;;;;5051351;28;20041;-64
2023/01/26 10:21:22;;;;;;;;;;;7.60;99.90;;;;;;5052530;28;20440;-65
2023/01/26 10:23:48;;;;;;;34.17;3.60;;;7.70;99.90;;;;;;5048207;28;20433;-63
2023/01/26 10:26:20;;;;;;;29.25;2.58;;;8.40;99.90;;;;;;5042085;28;20036;-64
2023/01/26 10:28:49;;;;;;;33.20;3.78;;;8.80;99.90;;;;;;5048101;28;20355;-65
2023/01/26 10:31:21;;;;;;;27.45;3.38;;;9.30;99.90;;;;;;5049001;28;20040;-64
2023/01/26 10:33:59;;;;;;;31.98;3.38;;;9.60;99.90;;;;;;5029846;28;20049;-63
2023/01/26 10:36:28;;;;;;;25.05;3.15;;;9.80;99.90;;;;;;5046221;28;20037;-64
2023/01/26 10:39:03;;;;;;;30.60;3.90;;;10.00;99.90;;;;;;5046651;28;20387;-64
2023/01/26 10:41:28;;;;;;;28.48;3.38;;;10.00;99.90;;;;;;5049309;28;20492;-64
2023/01/26 10:43:58;;;;;;;26.67;3.17;;;10.10;99.90;;;;;;5046632;28;20287;-63
2023/01/26 10:46:38;;;;;;;28.17;3.55;;;10.30;99.90;;;;;;5049001;28;20036;-64
2023/01/26 10:49:18;;;;;;;24.35;3.42;;;10.40;99.90;;;;;;5048264;28;20114;-64
2023/01/26 10:52:14;;;;;;;24.55;2.85;;;11.00;99.90;;;;;;5049875;28;20036;-64
2023/01/26 10:54:42;;;;;;;21.67;2.58;;;10.80;99.90;;;;;;5047805;28;20059;-64
2023/01/26 10:57:28;;;;;;;23.92;2.60;;;10.80;99.90;;;;;;5048893;28;20223;-64
2023/01/26 11:00:06;;;;;;;31.25;3.58;;;10.60;1.00;;;;;;5044248;28;20537;-65
2023/01/26 11:02:35;;;;;;;21.52;2.95;;;10.80;99.90;;;;;;5045409;28;20532;-62
2023/01/26 11:05:07;;;;;;;24.17;2.83;;;10.70;99.90;;;;;;5065834;28;20053;-64
2023/01/26 11:07:38;;;;;;;22.35;2.80;;;10.70;1.00;;;;;;5068405;28;20248;-63
2023/01/26 11:10:18;;;;;;;21.67;2.55;;;10.90;99.90;;;;;;5068816;28;20123;-62
2023/01/26 11:12:43;;;;;;;21.00;2.67;;;10.80;99.90;;;;;;5066965;28;20389;-63
2023/01/26 11:15:21;;;;;;;24.35;2.55;;;11.10;99.90;;;;;;5047797;28;20202;-63
2023/01/26 11:18:05;;;;;;;23.60;2.80;;;11.20;99.90;;;;;;5067870;28;20422;-64
2023/01/26 11:20:46;;;;;;;23.08;2.58;;;11.20;99.90;;;;;;5066507;28;20094;-63
2023/01/26 11:23:26;;;;;;;20.05;2.25;;;11.20;99.90;;;;;;5048444;28;20073;-64
2023/01/26 11:26:05;;;;;;;18.10;2.47;;;11.60;31.80;;;;;;5069706;28;20444;-63
2023/01/26 11:28:47;;;;;;;21.63;2.65;;;11.40;99.90;;;;;;5053323;28;20533;-64
2023/01/26 11:31:16;;;;;;;19.80;2.07;;;10.80;99.90;;;;;;5070532;28;20481;-64
2023/01/26 11:34:05;;;;;;;16.25;1.88;;;10.30;99.90;;;;;;5067774;28;20701;-65
2023/01/26 11:36:42;;;;;;;14.73;1.77;;;9.70;99.90;;;;;;5067141;28;20040;-63
2023/01/26 11:39:22;;;;;;;19.13;2.15;;;9.60;75.90;;;;;;5048791;28;20051;-64
2023/01/26 11:42:17;;;;;;;19.13;1.95;;;9.40;1.00;;;;;;5048814;28;20035;-64
2023/01/26 11:44:58;;;;;;;14.02;1.45;;;9.10;1.00;;;;;;5033992;28;20048;-64
2023/01/26 11:47:35;;;;;;;15.40;1.30;;;9.00;1.00;;;;;;5066024;28;20058;-63
2023/01/26 11:50:01;;;;;;;22.50;2.00;;;8.90;99.90;;;;;;5048686;28;20036;-64
2023/01/26 11:52:45;;;;;;;15.82;1.40;;;8.90;99.90;;;;;;5048694;28;20513;-65
2023/01/26 11:55:25;;;;;;;15.07;1.98;;;9.30;99.90;;;;;;5066697;28;20044;-64
2023/01/26 11:58:04;;;;;;;17.27;2.13;;;9.70;1.00;;;;;;5029786;28;20044;-64
2023/01/26 12:00:39;;;;;;;28.05;3.42;;;9.60;77.00;;;;;;5064822;28;20046;-65
2023/01/26 12:03:33;;;;;;;24.60;2.50;;;9.40;99.90;;;;;;5049449;28;20134;-65
2023/01/26 12:06:13;;;;;;;16.58;2.30;;;9.00;99.90;;;;;;5020047;28;20044;-65
2023/01/26 12:08:44;;;;;;;19.30;2.42;;;9.60;99.90;;;;;;5049295;28;20036;-64
2023/01/26 12:11:23;;;;;;;16.38;1.77;;;9.80;1.00;;;;;;5068413;28;20048;-64
2023/01/26 12:14:12;;;;;;;14.05;2.03;;;9.80;99.90;;;;;;5047348;28;20317;-64
2023/01/26 12:17:09;;;;;;;15.23;1.33;;;9.50;99.90;;;;;;5048869;28;20044;-63
2023/01/26 12:20:26;;;;;;;22.17;1.75;;;9.10;99.90;;;;;;5069903;28;20536;-64
2023/01/26 12:23:02;;;;;;;12.98;1.38;;;8.70;99.90;;;;;;5020488;28;20051;-63
2023/01/26 12:25:27;;;;;;;16.80;1.38;;;8.60;1.00;;;;;;5067102;28;20407;-64
2023/01/26 12:28:15;;;;;;;15.65;1.45;;;8.50;99.90;;;;;;5050189;28;20052;-65
2023/01/26 12:31:02;;;;;;;12.95;0.90;;;8.40;60.90;;;;;;5047670;28;20040;-64
2023/01/26 12:33:30;;;;;;;11.73;0.70;;;8.20;1.00;;;;;;5053980;28;20349;-65
2023/01/26 12:36:07;;;;;;;16.08;1.40;;;8.00;99.90;;;;;;5050924;28;20076;-63
2023/01/26 12:38:51;;;;;;;14.90;1.30;;;7.80;99.90;;;;;;5055222;28;20040;-63
2023/01/26 12:41:39;;;;;;;14.32;1.30;;;7.60;1.00;;;;;;5037636;28;20054;-64
2023/01/26 12:44:21;;;;;;;17.52;1.88;;;7.50;1.00;;;;;;5053571;28;20047;-65
2023/01/26 12:46:53;;;;;;;17.52;1.58;;;7.50;1.70;;;;;;5071597;28;20570;-63
2023/01/26 12:49:39;;;;;;;16.25;1.30;;;7.50;99.90;;;;;;5053077;28;20047;-64
2023/01/26 12:52:39;;;;;;;12.40;0.82;;;7.40;99.90;;;;;;5070558;28;20577;-63
2023/01/26 12:55:05;;;;;;;15.65;1.52;;;7.30;1.00;;;;;;5041487;28;20441;-63
2023/01/26 12:57:39;;;;;;;18.17;1.10;;;7.20;99.90;;;;;;5052904;28;20045;-64
2023/01/26 13:00:29;;;;;;;17.42;1.63;;;7.20;99.60;;;;;;5072021;28;20485;-64
2023/01/26 13:03:00;;;;;;;16.45;1.23;;;7.10;87.40;;;;;;5044703;28;20132;-65
2023/01/26 13:05:33;;;;;;;22.73;1.95;;;7.00;99.90;;;;;;5069340;28;20044;-63
2023/01/26 13:08:31;;;;;;;27.10;1.95;;;7.00;99.90;;;;;;5070662;28;20189;-63
2023/01/26 13:11:03;;;;;;;20.95;2.17;;;6.90;44.70;;;;;;5047732;28;20612;-64
2023/01/26 13:13:29;;;;;;;17.95;1.15;;;7.00;99.90;;;;;;5052546;28;20167;-64
2023/01/26 13:16:16;;;;;;;15.52;1.05;;;7.00;99.90;;;;;;5054073;28;20694;-63
2023/01/26 13:18:52;;;;;;;13.68;1.00;;;7.10;11.00;;;;;;5071238;28;20439;-65
2023/01/26 13:21:36;;;;;;;15.55;1.55;;;7.10;12.10;;;;;;5054286;28;20058;-63
2023/01/26 13:24:25;;;;;;;19.63;1.40;;;7.10;1.00;;;;;;5051593;28;20048;-64
2023/01/26 13:26:58;;;;;;;26.13;2.25;;;7.00;1.00;;;;;;5068318;28;20040;-62
2023/01/26 13:29:24;;;;;;;22.48;1.60;;;6.90;1.00;;;;;;5055816;28;20498;-64
2023/01/26 13:31:50;;;;;;;17.63;1.58;;;6.80;67.70;;;;;;5074097;28;20081;-63
2023/01/26 13:34:20;;;;;;;20.05;1.48;;;6.80;99.90;;;;;;5053162;28;20052;-63
2023/01/26 13:36:49;;;;;;;20.95;1.38;;;6.70;93.90;;;;;;5071701;28;20433;-64
2023/01/26 13:39:33;;;;;;;19.58;1.40;;;6.60;99.90;;;;;;5073073;28;20114;-64
2023/01/26 13:41:59;;;;;;;21.83;1.80;;;6.60;24.60;;;;;;5070441;28;20382;-63
2023/01/26 13:44:44;;;;;;;20.48;1.95;;;6.70;99.90;;;;;;5050357;28;20039;-63